sensor_id;sensor_type;location;lat;lon;timestamp;P1;durP1;ratioP1;P2;durP2;ratioP2
73452;SDS011;61687;56.232;43.854;2024-02-26T00:01:52;8.38;;;3.75;;
73452;SDS011;61687;56.232;43.854;2024-02-26T00:04:18;7.10;;;3.60;;
73452;SDS011;61687;56.232;43.854;2024-02-26T00:06:44;6.40;;;3.42;;
73452;SDS011;61687;56.232;43.854;2024-02-26T00:09:10;5.97;;;3.58;;
73452;SDS011;61687;56.232;43.854;2024-02-26T00:11:36;5.28;;;3.05;;
73452;SDS011;61687;56.232;43.854;2024-02-26T00:14:03;6.70;;;3.47;;
73452;SDS011;61687;56.232;43.854;2024-02-26T00:16:29;5.57;;;2.90;;
73452;SDS011;61687;56.232;43.854;2024-02-26T00:18:55;21.33;;;3.85;;
73452;SDS011;61687;56.232;43.854;2024-02-26T00:21:21;8.40;;;3.30;;
73452;SDS011;61687;56.232;43.854;2024-02-26T00:23:49;5.53;;;3.38;;
73452;SDS011;61687;56.232;43.854;2024-02-26T00:26:16;6.10;;;3.03;;
73452;SDS011;61687;56.232;43.854;2024-02-26T00:28:42;6.47;;;3.23;;
73452;SDS011;61687;56.232;43.854;2024-02-26T00:31:09;8.70;;;3.35;;
73452;SDS011;61687;56.232;43.854;2024-02-26T00:33:35;6.70;;;3.83;;
73452;SDS011;61687;56.232;43.854;2024-02-26T00:36:01;5.78;;;3.30;;
73452;SDS011;61687;56.232;43.854;2024-02-26T00:38:27;6.93;;;3.30;;
73452;SDS011;61687;56.232;43.854;2024-02-26T00:40:53;6.80;;;3.45;;
73452;SDS011;61687;56.232;43.854;2024-02-26T00:43:19;11.43;;;3.95;;
73452;SDS011;61687;56.232;43.854;2024-02-26T00:45:45;6.78;;;2.88;;
73452;SDS011;61687;56.232;43.854;2024-02-26T00:48:12;6.67;;;3.47;;
73452;SDS011;61687;56.232;43.854;2024-02-26T00:50:39;8.00;;;4.10;;
73452;SDS011;61687;56.232;43.854;2024-02-26T00:53:05;8.77;;;3.80;;
73452;SDS011;61687;56.232;43.854;2024-02-26T00:55:31;6.07;;;3.30;;
73452;SDS011;61687;56.232;43.854;2024-02-26T00:57:57;7.93;;;3.72;;
73452;SDS011;61687;56.232;43.854;2024-02-26T01:00:23;6.53;;;3.47;;
73452;SDS011;61687;56.232;43.854;2024-02-26T01:02:49;7.05;;;3.65;;
73452;SDS011;61687;56.232;43.854;2024-02-26T01:05:15;8.18;;;3.95;;
73452;SDS011;61687;56.232;43.854;2024-02-26T01:07:44;6.83;;;3.53;;
73452;SDS011;61687;56.232;43.854;2024-02-26T01:10:10;6.72;;;3.40;;
73452;SDS011;61687;56.232;43.854;2024-02-26T01:12:36;6.22;;;3.45;;
73452;SDS011;61687;56.232;43.854;2024-02-26T01:15:02;6.57;;;3.63;;
73452;SDS011;61687;56.232;43.854;2024-02-26T01:17:31;7.57;;;3.50;;
73452;SDS011;61687;56.232;43.854;2024-02-26T01:19:58;6.78;;;4.05;;
73452;SDS011;61687;56.232;43.854;2024-02-26T01:22:24;6.85;;;3.78;;
73452;SDS011;61687;56.232;43.854;2024-02-26T01:24:50;6.28;;;3.50;;
73452;SDS011;61687;56.232;43.854;2024-02-26T01:27:16;6.47;;;3.25;;
73452;SDS011;61687;56.232;43.854;2024-02-26T01:29:42;7.40;;;3.70;;
73452;SDS011;61687;56.232;43.854;2024-02-26T01:32:10;7.35;;;3.78;;
73452;SDS011;61687;56.232;43.854;2024-02-26T01:34:36;9.90;;;4.15;;
73452;SDS011;61687;56.232;43.854;2024-02-26T01:37:02;7.90;;;3.65;;
73452;SDS011;61687;56.232;43.854;2024-02-26T01:39:28;6.70;;;3.53;;
73452;SDS011;61687;56.232;43.854;2024-02-26T01:41:55;8.02;;;3.97;;
73452;SDS011;61687;56.232;43.854;2024-02-26T01:44:21;5.53;;;3.50;;
73452;SDS011;61687;56.232;43.854;2024-02-26T01:46:48;7.30;;;4.00;;
73452;SDS011;61687;56.232;43.854;2024-02-26T01:49:15;6.35;;;3.58;;
73452;SDS011;61687;56.232;43.854;2024-02-26T01:51:41;7.57;;;3.40;;
73452;SDS011;61687;56.232;43.854;2024-02-26T01:54:09;8.85;;;3.33;;
73452;SDS011;61687;56.232;43.854;2024-02-26T01:56:36;8.95;;;4.30;;
73452;SDS011;61687;56.232;43.854;2024-02-26T01:59:04;7.80;;;4.28;;
73452;SDS011;61687;56.232;43.854;2024-02-26T02:01:32;9.07;;;4.25;;
73452;SDS011;61687;56.232;43.854;2024-02-26T02:03:59;9.63;;;4.03;;
73452;SDS011;61687;56.232;43.854;2024-02-26T02:06:26;10.25;;;4.00;;
73452;SDS011;61687;56.232;43.854;2024-02-26T02:08:56;8.10;;;4.32;;
73452;SDS011;61687;56.232;43.854;2024-02-26T02:11:22;8.82;;;4.47;;
73452;SDS011;61687;56.232;43.854;2024-02-26T02:13:49;7.53;;;4.03;;
73452;SDS011;61687;56.232;43.854;2024-02-26T02:16:15;10.70;;;3.60;;
73452;SDS011;61687;56.232;43.854;2024-02-26T02:18:41;9.20;;;3.13;;
73452;SDS011;61687;56.232;43.854;2024-02-26T02:21:07;7.07;;;3.80;;
73452;SDS011;61687;56.232;43.854;2024-02-26T02:23:33;8.02;;;3.78;;
73452;SDS011;61687;56.232;43.854;2024-02-26T02:25:59;9.77;;;3.73;;
73452;SDS011;61687;56.232;43.854;2024-02-26T02:28:26;9.98;;;4.50;;
73452;SDS011;61687;56.232;43.854;2024-02-26T02:30:53;8.80;;;3.65;;
73452;SDS011;61687;56.232;43.854;2024-02-26T02:33:20;10.48;;;3.80;;
73452;SDS011;61687;56.232;43.854;2024-02-26T02:35:48;9.65;;;4.30;;
73452;SDS011;61687;56.232;43.854;2024-02-26T02:38:16;7.77;;;3.77;;
73452;SDS011;61687;56.232;43.854;2024-02-26T02:40:42;8.90;;;4.20;;
73452;SDS011;61687;56.232;43.854;2024-02-26T02:43:08;7.78;;;4.28;;
73452;SDS011;61687;56.232;43.854;2024-02-26T02:45:34;8.23;;;3.67;;
73452;SDS011;61687;56.232;43.854;2024-02-26T02:48:00;8.50;;;3.53;;
73452;SDS011;61687;56.232;43.854;2024-02-26T02:50:26;7.40;;;4.00;;
73452;SDS011;61687;56.232;43.854;2024-02-26T02:52:54;9.30;;;3.60;;
73452;SDS011;61687;56.232;43.854;2024-02-26T02:55:20;8.98;;;3.55;;
73452;SDS011;61687;56.232;43.854;2024-02-26T02:57:46;9.43;;;4.45;;
73452;SDS011;61687;56.232;43.854;2024-02-26T03:00:12;5.73;;;3.40;;
73452;SDS011;61687;56.232;43.854;2024-02-26T03:02:38;5.88;;;3.75;;
73452;SDS011;61687;56.232;43.854;2024-02-26T03:05:04;7.45;;;3.42;;
73452;SDS011;61687;56.232;43.854;2024-02-26T03:07:31;7.07;;;3.17;;
73452;SDS011;61687;56.232;43.854;2024-02-26T03:09:57;5.57;;;3.55;;
73452;SDS011;61687;56.232;43.854;2024-02-26T03:12:23;6.40;;;3.38;;
73452;SDS011;61687;56.232;43.854;2024-02-26T03:14:49;8.63;;;3.70;;
73452;SDS011;61687;56.232;43.854;2024-02-26T03:17:15;6.75;;;3.55;;
73452;SDS011;61687;56.232;43.854;2024-02-26T03:19:41;6.50;;;3.57;;
73452;SDS011;61687;56.232;43.854;2024-02-26T03:22:07;5.55;;;3.30;;
73452;SDS011;61687;56.232;43.854;2024-02-26T03:24:33;11.68;;;3.90;;
73452;SDS011;61687;56.232;43.854;2024-02-26T03:26:59;9.68;;;3.22;;
73452;SDS011;61687;56.232;43.854;2024-02-26T03:29:25;8.93;;;4.45;;
73452;SDS011;61687;56.232;43.854;2024-02-26T03:31:51;6.23;;;3.07;;
73452;SDS011;61687;56.232;43.854;2024-02-26T03:34:17;8.75;;;3.85;;
73452;SDS011;61687;56.232;43.854;2024-02-26T03:36:45;8.13;;;3.70;;
73452;SDS011;61687;56.232;43.854;2024-02-26T03:39:11;13.57;;;3.88;;
73452;SDS011;61687;56.232;43.854;2024-02-26T03:41:37;6.73;;;4.27;;
73452;SDS011;61687;56.232;43.854;2024-02-26T03:44:03;6.43;;;3.33;;
73452;SDS011;61687;56.232;43.854;2024-02-26T03:46:29;6.57;;;3.67;;
73452;SDS011;61687;56.232;43.854;2024-02-26T03:48:55;7.15;;;4.18;;
73452;SDS011;61687;56.232;43.854;2024-02-26T03:51:21;7.82;;;3.75;;
73452;SDS011;61687;56.232;43.854;2024-02-26T03:53:47;11.15;;;4.53;;
73452;SDS011;61687;56.232;43.854;2024-02-26T03:56:14;8.25;;;4.18;;
73452;SDS011;61687;56.232;43.854;2024-02-26T03:58:40;9.05;;;4.07;;
73452;SDS011;61687;56.232;43.854;2024-02-26T04:01:09;8.97;;;4.13;;
73452;SDS011;61687;56.232;43.854;2024-02-26T04:03:35;8.45;;;3.65;;
73452;SDS011;61687;56.232;43.854;2024-02-26T04:06:01;10.18;;;3.67;;
73452;SDS011;61687;56.232;43.854;2024-02-26T04:08:28;9.07;;;3.47;;
73452;SDS011;61687;56.232;43.854;2024-02-26T04:10:55;6.75;;;3.65;;
73452;SDS011;61687;56.232;43.854;2024-02-26T04:13:21;6.43;;;3.37;;
73452;SDS011;61687;56.232;43.854;2024-02-26T04:15:47;11.30;;;3.50;;
73452;SDS011;61687;56.232;43.854;2024-02-26T04:18:13;10.57;;;4.10;;
73452;SDS011;61687;56.232;43.854;2024-02-26T04:20:40;11.75;;;4.60;;
73452;SDS011;61687;56.232;43.854;2024-02-26T04:23:08;7.10;;;3.60;;
73452;SDS011;61687;56.232;43.854;2024-02-26T04:25:34;10.20;;;4.30;;
73452;SDS011;61687;56.232;43.854;2024-02-26T04:27:59;7.38;;;3.67;;
73452;SDS011;61687;56.232;43.854;2024-02-26T04:30:25;8.05;;;4.20;;
73452;SDS011;61687;56.232;43.854;2024-02-26T04:32:51;8.07;;;3.40;;
73452;SDS011;61687;56.232;43.854;2024-02-26T04:35:18;7.85;;;4.82;;
73452;SDS011;61687;56.232;43.854;2024-02-26T04:37:43;6.63;;;3.97;;
73452;SDS011;61687;56.232;43.854;2024-02-26T04:40:09;7.40;;;3.83;;
73452;SDS011;61687;56.232;43.854;2024-02-26T04:42:36;8.90;;;4.10;;
73452;SDS011;61687;56.232;43.854;2024-02-26T04:45:02;8.10;;;3.55;;
73452;SDS011;61687;56.232;43.854;2024-02-26T04:47:29;12.95;;;3.97;;
73452;SDS011;61687;56.232;43.854;2024-02-26T04:49:55;8.33;;;4.33;;
73452;SDS011;61687;56.232;43.854;2024-02-26T04:52:21;9.25;;;4.20;;
73452;SDS011;61687;56.232;43.854;2024-02-26T04:54:47;9.45;;;4.28;;
73452;SDS011;61687;56.232;43.854;2024-02-26T04:57:13;7.97;;;3.33;;
73452;SDS011;61687;56.232;43.854;2024-02-26T04:59:39;8.73;;;3.37;;
73452;SDS011;61687;56.232;43.854;2024-02-26T05:02:07;10.38;;;4.10;;
73452;SDS011;61687;56.232;43.854;2024-02-26T05:04:33;9.02;;;4.07;;
73452;SDS011;61687;56.232;43.854;2024-02-26T05:06:59;10.20;;;3.85;;
73452;SDS011;61687;56.232;43.854;2024-02-26T05:09:25;11.17;;;4.50;;
73452;SDS011;61687;56.232;43.854;2024-02-26T05:11:51;15.57;;;4.65;;
73452;SDS011;61687;56.232;43.854;2024-02-26T05:14:17;7.95;;;4.10;;
73452;SDS011;61687;56.232;43.854;2024-02-26T05:16:43;10.57;;;4.43;;
73452;SDS011;61687;56.232;43.854;2024-02-26T05:19:09;11.23;;;4.72;;
73452;SDS011;61687;56.232;43.854;2024-02-26T05:21:35;9.75;;;5.03;;
73452;SDS011;61687;56.232;43.854;2024-02-26T05:24:01;9.20;;;5.53;;
73452;SDS011;61687;56.232;43.854;2024-02-26T05:26:26;10.00;;;4.82;;
73452;SDS011;61687;56.232;43.854;2024-02-26T05:28:52;10.68;;;4.80;;
73452;SDS011;61687;56.232;43.854;2024-02-26T05:31:18;8.27;;;5.07;;
73452;SDS011;61687;56.232;43.854;2024-02-26T05:33:44;10.27;;;5.25;;
73452;SDS011;61687;56.232;43.854;2024-02-26T05:36:10;9.48;;;5.13;;
73452;SDS011;61687;56.232;43.854;2024-02-26T05:38:44;10.33;;;4.37;;
73452;SDS011;61687;56.232;43.854;2024-02-26T05:41:12;10.15;;;4.45;;
73452;SDS011;61687;56.232;43.854;2024-02-26T05:43:38;9.65;;;4.88;;
73452;SDS011;61687;56.232;43.854;2024-02-26T05:46:03;9.35;;;4.82;;
73452;SDS011;61687;56.232;43.854;2024-02-26T05:48:29;8.03;;;4.40;;
73452;SDS011;61687;56.232;43.854;2024-02-26T05:50:57;10.82;;;4.57;;
73452;SDS011;61687;56.232;43.854;2024-02-26T05:53:23;9.95;;;4.82;;
73452;SDS011;61687;56.232;43.854;2024-02-26T05:55:49;12.07;;;5.00;;
73452;SDS011;61687;56.232;43.854;2024-02-26T05:58:15;9.95;;;4.47;;
73452;SDS011;61687;56.232;43.854;2024-02-26T06:00:41;8.45;;;4.82;;
73452;SDS011;61687;56.232;43.854;2024-02-26T06:03:06;14.90;;;4.97;;
73452;SDS011;61687;56.232;43.854;2024-02-26T06:05:32;10.90;;;4.60;;
73452;SDS011;61687;56.232;43.854;2024-02-26T06:07:58;10.98;;;5.00;;
73452;SDS011;61687;56.232;43.854;2024-02-26T06:10:24;11.27;;;5.13;;
73452;SDS011;61687;56.232;43.854;2024-02-26T06:12:50;10.07;;;4.13;;
73452;SDS011;61687;56.232;43.854;2024-02-26T06:15:16;7.27;;;4.17;;
73452;SDS011;61687;56.232;43.854;2024-02-26T06:17:42;9.98;;;4.15;;
73452;SDS011;61687;56.232;43.854;2024-02-26T06:20:08;10.52;;;5.07;;
73452;SDS011;61687;56.232;43.854;2024-02-26T06:22:39;9.13;;;4.63;;
73452;SDS011;61687;56.232;43.854;2024-02-26T06:25:06;10.23;;;4.40;;
73452;SDS011;61687;56.232;43.854;2024-02-26T06:27:32;7.40;;;4.93;;
73452;SDS011;61687;56.232;43.854;2024-02-26T06:29:58;10.00;;;4.72;;
73452;SDS011;61687;56.232;43.854;2024-02-26T06:32:24;9.53;;;5.03;;
73452;SDS011;61687;56.232;43.854;2024-02-26T06:34:52;8.95;;;4.20;;
73452;SDS011;61687;56.232;43.854;2024-02-26T06:37:18;8.18;;;4.55;;
73452;SDS011;61687;56.232;43.854;2024-02-26T06:39:44;11.90;;;4.60;;
73452;SDS011;61687;56.232;43.854;2024-02-26T06:42:10;9.77;;;4.70;;
73452;SDS011;61687;56.232;43.854;2024-02-26T06:44:35;9.18;;;4.75;;
73452;SDS011;61687;56.232;43.854;2024-02-26T06:47:01;10.05;;;5.22;;
73452;SDS011;61687;56.232;43.854;2024-02-26T06:49:27;8.30;;;4.25;;
73452;SDS011;61687;56.232;43.854;2024-02-26T06:51:54;13.83;;;5.40;;
73452;SDS011;61687;56.232;43.854;2024-02-26T06:54:20;9.98;;;5.13;;
73452;SDS011;61687;56.232;43.854;2024-02-26T06:56:46;8.35;;;4.90;;
73452;SDS011;61687;56.232;43.854;2024-02-26T06:59:12;10.63;;;4.63;;
73452;SDS011;61687;56.232;43.854;2024-02-26T07:01:40;8.90;;;4.90;;
73452;SDS011;61687;56.232;43.854;2024-02-26T07:04:06;11.25;;;5.20;;
73452;SDS011;61687;56.232;43.854;2024-02-26T07:06:32;12.68;;;4.70;;
73452;SDS011;61687;56.232;43.854;2024-02-26T07:08:58;11.43;;;5.10;;
73452;SDS011;61687;56.232;43.854;2024-02-26T07:11:24;8.13;;;4.43;;
73452;SDS011;61687;56.232;43.854;2024-02-26T07:13:50;10.32;;;5.25;;
73452;SDS011;61687;56.232;43.854;2024-02-26T07:16:16;12.10;;;4.95;;
73452;SDS011;61687;56.232;43.854;2024-02-26T07:18:42;6.20;;;3.77;;
73452;SDS011;61687;56.232;43.854;2024-02-26T07:21:14;10.55;;;5.40;;
73452;SDS011;61687;56.232;43.854;2024-02-26T07:23:40;12.57;;;5.53;;
73452;SDS011;61687;56.232;43.854;2024-02-26T07:26:06;12.07;;;5.00;;
73452;SDS011;61687;56.232;43.854;2024-02-26T07:28:34;10.63;;;5.50;;
73452;SDS011;61687;56.232;43.854;2024-02-26T07:30:59;13.88;;;5.35;;
73452;SDS011;61687;56.232;43.854;2024-02-26T07:33:25;10.98;;;5.88;;
73452;SDS011;61687;56.232;43.854;2024-02-26T07:35:51;10.73;;;4.57;;
73452;SDS011;61687;56.232;43.854;2024-02-26T07:38:19;11.65;;;5.80;;
73452;SDS011;61687;56.232;43.854;2024-02-26T07:40:45;10.25;;;5.30;;
73452;SDS011;61687;56.232;43.854;2024-02-26T07:43:11;10.80;;;5.57;;
73452;SDS011;61687;56.232;43.854;2024-02-26T07:45:36;9.37;;;5.40;;
73452;SDS011;61687;56.232;43.854;2024-02-26T07:48:02;9.15;;;5.30;;
73452;SDS011;61687;56.232;43.854;2024-02-26T07:50:28;8.30;;;4.82;;
73452;SDS011;61687;56.232;43.854;2024-02-26T07:52:54;11.07;;;4.83;;
73452;SDS011;61687;56.232;43.854;2024-02-26T07:55:20;11.05;;;6.05;;
73452;SDS011;61687;56.232;43.854;2024-02-26T07:57:47;9.77;;;4.95;;
73452;SDS011;61687;56.232;43.854;2024-02-26T08:00:13;12.50;;;5.28;;
73452;SDS011;61687;56.232;43.854;2024-02-26T08:02:43;11.43;;;4.60;;
73452;SDS011;61687;56.232;43.854;2024-02-26T08:05:09;11.95;;;5.07;;
73452;SDS011;61687;56.232;43.854;2024-02-26T08:07:35;11.93;;;5.63;;
73452;SDS011;61687;56.232;43.854;2024-02-26T08:10:01;14.60;;;4.75;;
73452;SDS011;61687;56.232;43.854;2024-02-26T08:12:28;10.03;;;5.13;;
73452;SDS011;61687;56.232;43.854;2024-02-26T08:14:54;12.48;;;5.70;;
73452;SDS011;61687;56.232;43.854;2024-02-26T08:17:21;10.18;;;4.80;;
73452;SDS011;61687;56.232;43.854;2024-02-26T08:19:47;11.70;;;5.23;;
73452;SDS011;61687;56.232;43.854;2024-02-26T08:22:13;11.63;;;5.43;;
73452;SDS011;61687;56.232;43.854;2024-02-26T08:24:42;9.70;;;5.32;;
73452;SDS011;61687;56.232;43.854;2024-02-26T08:27:08;13.88;;;5.40;;
73452;SDS011;61687;56.232;43.854;2024-02-26T08:29:34;12.40;;;5.63;;
73452;SDS011;61687;56.232;43.854;2024-02-26T08:32:00;10.07;;;5.20;;
73452;SDS011;61687;56.232;43.854;2024-02-26T08:34:26;9.80;;;4.97;;
73452;SDS011;61687;56.232;43.854;2024-02-26T08:36:52;10.98;;;5.63;;
73452;SDS011;61687;56.232;43.854;2024-02-26T08:39:18;9.73;;;5.90;;
73452;SDS011;61687;56.232;43.854;2024-02-26T08:41:44;11.93;;;5.32;;
73452;SDS011;61687;56.232;43.854;2024-02-26T08:44:10;12.25;;;4.68;;
73452;SDS011;61687;56.232;43.854;2024-02-26T08:46:36;9.63;;;4.93;;
73452;SDS011;61687;56.232;43.854;2024-02-26T08:49:03;13.05;;;5.65;;
73452;SDS011;61687;56.232;43.854;2024-02-26T08:51:29;13.32;;;5.25;;
73452;SDS011;61687;56.232;43.854;2024-02-26T08:53:55;13.52;;;6.18;;
73452;SDS011;61687;56.232;43.854;2024-02-26T08:56:21;10.80;;;5.07;;
73452;SDS011;61687;56.232;43.854;2024-02-26T08:58:47;11.20;;;5.27;;
73452;SDS011;61687;56.232;43.854;2024-02-26T09:01:19;13.23;;;5.13;;
73452;SDS011;61687;56.232;43.854;2024-02-26T09:03:45;11.27;;;5.90;;
73452;SDS011;61687;56.232;43.854;2024-02-26T09:06:11;9.18;;;5.03;;
73452;SDS011;61687;56.232;43.854;2024-02-26T09:08:39;12.05;;;5.47;;
73452;SDS011;61687;56.232;43.854;2024-02-26T09:11:05;8.50;;;4.83;;
73452;SDS011;61687;56.232;43.854;2024-02-26T09:13:32;10.27;;;5.88;;
73452;SDS011;61687;56.232;43.854;2024-02-26T09:15:57;12.20;;;5.25;;
73452;SDS011;61687;56.232;43.854;2024-02-26T09:18:24;11.43;;;4.80;;
73452;SDS011;61687;56.232;43.854;2024-02-26T09:20:50;9.52;;;5.13;;
73452;SDS011;61687;56.232;43.854;2024-02-26T09:23:16;10.48;;;5.40;;
73452;SDS011;61687;56.232;43.854;2024-02-26T09:25:42;11.60;;;5.63;;
73452;SDS011;61687;56.232;43.854;2024-02-26T09:28:08;10.35;;;4.90;;
73452;SDS011;61687;56.232;43.854;2024-02-26T09:30:34;14.55;;;6.55;;
73452;SDS011;61687;56.232;43.854;2024-02-26T09:32:59;10.90;;;5.57;;
73452;SDS011;61687;56.232;43.854;2024-02-26T09:35:25;8.38;;;5.18;;
73452;SDS011;61687;56.232;43.854;2024-02-26T09:37:52;13.07;;;5.43;;
73452;SDS011;61687;56.232;43.854;2024-02-26T09:40:19;12.52;;;5.45;;
73452;SDS011;61687;56.232;43.854;2024-02-26T09:42:45;8.80;;;4.33;;
73452;SDS011;61687;56.232;43.854;2024-02-26T09:45:16;16.35;;;5.22;;
73452;SDS011;61687;56.232;43.854;2024-02-26T09:47:44;11.13;;;5.13;;
73452;SDS011;61687;56.232;43.854;2024-02-26T09:50:10;11.13;;;5.15;;
73452;SDS011;61687;56.232;43.854;2024-02-26T09:52:39;12.93;;;5.88;;
73452;SDS011;61687;56.232;43.854;2024-02-26T09:55:07;9.60;;;4.65;;
73452;SDS011;61687;56.232;43.854;2024-02-26T09:57:37;13.05;;;6.00;;
73452;SDS011;61687;56.232;43.854;2024-02-26T10:00:03;9.82;;;5.25;;
73452;SDS011;61687;56.232;43.854;2024-02-26T10:02:33;9.57;;;4.97;;
73452;SDS011;61687;56.232;43.854;2024-02-26T10:05:02;9.20;;;5.00;;
73452;SDS011;61687;56.232;43.854;2024-02-26T10:07:32;10.50;;;5.00;;
73452;SDS011;61687;56.232;43.854;2024-02-26T10:09:58;8.88;;;5.30;;
73452;SDS011;61687;56.232;43.854;2024-02-26T10:12:24;8.98;;;4.60;;
73452;SDS011;61687;56.232;43.854;2024-02-26T10:14:53;8.85;;;4.53;;
73452;SDS011;61687;56.232;43.854;2024-02-26T10:17:19;10.73;;;5.35;;
73452;SDS011;61687;56.232;43.854;2024-02-26T10:19:45;11.40;;;5.05;;
73452;SDS011;61687;56.232;43.854;2024-02-26T10:22:11;12.88;;;5.13;;
73452;SDS011;61687;56.232;43.854;2024-02-26T10:24:37;10.40;;;4.53;;
73452;SDS011;61687;56.232;43.854;2024-02-26T10:27:03;11.48;;;5.05;;
73452;SDS011;61687;56.232;43.854;2024-02-26T10:29:31;13.40;;;5.50;;
73452;SDS011;61687;56.232;43.854;2024-02-26T10:31:57;9.33;;;4.53;;
73452;SDS011;61687;56.232;43.854;2024-02-26T10:34:23;11.52;;;5.10;;
73452;SDS011;61687;56.232;43.854;2024-02-26T10:36:49;9.02;;;4.65;;
73452;SDS011;61687;56.232;43.854;2024-02-26T10:39:15;10.40;;;4.43;;
73452;SDS011;61687;56.232;43.854;2024-02-26T10:41:43;9.10;;;4.88;;
73452;SDS011;61687;56.232;43.854;2024-02-26T10:44:10;8.50;;;4.20;;
73452;SDS011;61687;56.232;43.854;2024-02-26T10:46:39;11.18;;;4.65;;
73452;SDS011;61687;56.232;43.854;2024-02-26T10:49:08;10.48;;;4.25;;
73452;SDS011;61687;56.232;43.854;2024-02-26T10:51:39;10.10;;;4.13;;
73452;SDS011;61687;56.232;43.854;2024-02-26T10:54:09;9.00;;;4.40;;
73452;SDS011;61687;56.232;43.854;2024-02-26T10:56:41;8.87;;;4.20;;
73452;SDS011;61687;56.232;43.854;2024-02-26T10:59:11;11.13;;;4.65;;
73452;SDS011;61687;56.232;43.854;2024-02-26T11:01:38;9.70;;;4.47;;
73452;SDS011;61687;56.232;43.854;2024-02-26T11:04:06;8.43;;;4.40;;
73452;SDS011;61687;56.232;43.854;2024-02-26T11:06:35;10.20;;;4.72;;
73452;SDS011;61687;56.232;43.854;2024-02-26T11:09:02;10.10;;;3.97;;
73452;SDS011;61687;56.232;43.854;2024-02-26T11:11:31;8.07;;;4.53;;
73452;SDS011;61687;56.232;43.854;2024-02-26T11:13:59;8.90;;;4.32;;
73452;SDS011;61687;56.232;43.854;2024-02-26T11:16:28;7.72;;;4.53;;
73452;SDS011;61687;56.232;43.854;2024-02-26T11:18:55;10.25;;;5.18;;
73452;SDS011;61687;56.232;43.854;2024-02-26T11:21:23;10.90;;;4.27;;
73452;SDS011;61687;56.232;43.854;2024-02-26T11:24:05;9.40;;;4.80;;
73452;SDS011;61687;56.232;43.854;2024-02-26T11:26:34;8.40;;;4.15;;
73452;SDS011;61687;56.232;43.854;2024-02-26T11:29:04;13.73;;;4.63;;
73452;SDS011;61687;56.232;43.854;2024-02-26T11:31:33;12.20;;;4.50;;
73452;SDS011;61687;56.232;43.854;2024-02-26T11:33:59;8.30;;;4.50;;
73452;SDS011;61687;56.232;43.854;2024-02-26T11:36:25;11.43;;;4.60;;
73452;SDS011;61687;56.232;43.854;2024-02-26T11:38:51;7.65;;;3.75;;
73452;SDS011;61687;56.232;43.854;2024-02-26T11:41:17;10.20;;;4.47;;
73452;SDS011;61687;56.232;43.854;2024-02-26T11:43:57;10.38;;;4.07;;
73452;SDS011;61687;56.232;43.854;2024-02-26T11:46:27;11.10;;;4.87;;
73452;SDS011;61687;56.232;43.854;2024-02-26T11:48:56;9.80;;;4.55;;
73452;SDS011;61687;56.232;43.854;2024-02-26T11:51:45;12.05;;;5.63;;
73452;SDS011;61687;56.232;43.854;2024-02-26T11:57:23;9.63;;;4.32;;
73452;SDS011;61687;56.232;43.854;2024-02-26T11:59:53;9.40;;;4.23;;
73452;SDS011;61687;56.232;43.854;2024-02-26T12:03:03;9.95;;;5.05;;
73452;SDS011;61687;56.232;43.854;2024-02-26T12:05:16;11.20;;;5.55;;
73452;SDS011;61687;56.232;43.854;2024-02-26T12:07:46;8.88;;;4.45;;
73452;SDS011;61687;56.232;43.854;2024-02-26T12:10:26;10.38;;;4.38;;
73452;SDS011;61687;56.232;43.854;2024-02-26T12:15:26;11.82;;;4.35;;
73452;SDS011;61687;56.232;43.854;2024-02-26T12:17:56;9.30;;;5.20;;
73452;SDS011;61687;56.232;43.854;2024-02-26T12:20:22;11.23;;;5.47;;
73452;SDS011;61687;56.232;43.854;2024-02-26T12:22:49;16.50;;;5.90;;
73452;SDS011;61687;56.232;43.854;2024-02-26T12:25:19;10.63;;;5.50;;
73452;SDS011;61687;56.232;43.854;2024-02-26T12:27:46;11.18;;;4.97;;
73452;SDS011;61687;56.232;43.854;2024-02-26T12:30:12;10.75;;;5.38;;
73452;SDS011;61687;56.232;43.854;2024-02-26T12:32:38;11.35;;;5.32;;
73452;SDS011;61687;56.232;43.854;2024-02-26T12:35:05;10.77;;;4.77;;
73452;SDS011;61687;56.232;43.854;2024-02-26T12:37:31;11.90;;;4.22;;
73452;SDS011;61687;56.232;43.854;2024-02-26T12:39:57;10.38;;;4.88;;
73452;SDS011;61687;56.232;43.854;2024-02-26T12:42:23;11.68;;;4.68;;
73452;SDS011;61687;56.232;43.854;2024-02-26T12:44:50;10.75;;;5.38;;
73452;SDS011;61687;56.232;43.854;2024-02-26T12:47:17;13.68;;;5.07;;
73452;SDS011;61687;56.232;43.854;2024-02-26T12:49:45;9.88;;;5.57;;
73452;SDS011;61687;56.232;43.854;2024-02-26T12:52:13;12.90;;;4.55;;
73452;SDS011;61687;56.232;43.854;2024-02-26T12:54:39;13.85;;;5.22;;
73452;SDS011;61687;56.232;43.854;2024-02-26T12:57:06;10.63;;;5.00;;
73452;SDS011;61687;56.232;43.854;2024-02-26T12:59:34;9.13;;;4.38;;
73452;SDS011;61687;56.232;43.854;2024-02-26T13:02:00;10.98;;;4.75;;
73452;SDS011;61687;56.232;43.854;2024-02-26T13:04:28;11.00;;;4.97;;
73452;SDS011;61687;56.232;43.854;2024-02-26T13:06:55;10.88;;;4.80;;
73452;SDS011;61687;56.232;43.854;2024-02-26T13:09:26;9.05;;;4.40;;
73452;SDS011;61687;56.232;43.854;2024-02-26T13:11:53;10.20;;;4.72;;
73452;SDS011;61687;56.232;43.854;2024-02-26T13:14:20;9.50;;;4.80;;
73452;SDS011;61687;56.232;43.854;2024-02-26T13:16:54;9.23;;;4.63;;
73452;SDS011;61687;56.232;43.854;2024-02-26T13:19:21;8.73;;;4.50;;
73452;SDS011;61687;56.232;43.854;2024-02-26T13:21:47;10.73;;;4.43;;
73452;SDS011;61687;56.232;43.854;2024-02-26T13:24:13;9.80;;;4.22;;
73452;SDS011;61687;56.232;43.854;2024-02-26T13:26:39;10.63;;;4.95;;
73452;SDS011;61687;56.232;43.854;2024-02-26T13:29:05;9.82;;;3.95;;
73452;SDS011;61687;56.232;43.854;2024-02-26T13:31:31;11.07;;;4.95;;
73452;SDS011;61687;56.232;43.854;2024-02-26T13:34:04;10.38;;;4.88;;
73452;SDS011;61687;56.232;43.854;2024-02-26T13:36:30;8.32;;;4.63;;
73452;SDS011;61687;56.232;43.854;2024-02-26T13:38:55;12.20;;;4.43;;
73452;SDS011;61687;56.232;43.854;2024-02-26T13:41:22;13.37;;;4.77;;
73452;SDS011;61687;56.232;43.854;2024-02-26T13:43:48;12.13;;;6.15;;
73452;SDS011;61687;56.232;43.854;2024-02-26T13:46:15;11.50;;;5.80;;
73452;SDS011;61687;56.232;43.854;2024-02-26T13:48:41;12.10;;;5.38;;
73452;SDS011;61687;56.232;43.854;2024-02-26T13:51:07;8.35;;;4.40;;
73452;SDS011;61687;56.232;43.854;2024-02-26T13:53:33;13.03;;;4.63;;
73452;SDS011;61687;56.232;43.854;2024-02-26T13:55:59;9.68;;;4.03;;
73452;SDS011;61687;56.232;43.854;2024-02-26T13:58:27;7.90;;;3.83;;
73452;SDS011;61687;56.232;43.854;2024-02-26T14:00:53;11.38;;;4.55;;
73452;SDS011;61687;56.232;43.854;2024-02-26T14:03:19;9.75;;;5.20;;
73452;SDS011;61687;56.232;43.854;2024-02-26T14:05:46;9.50;;;4.93;;
73452;SDS011;61687;56.232;43.854;2024-02-26T14:08:12;8.90;;;4.05;;
73452;SDS011;61687;56.232;43.854;2024-02-26T14:10:38;10.27;;;5.03;;
73452;SDS011;61687;56.232;43.854;2024-02-26T14:13:04;10.85;;;5.47;;
73452;SDS011;61687;56.232;43.854;2024-02-26T14:15:30;11.73;;;5.17;;
73452;SDS011;61687;56.232;43.854;2024-02-26T14:17:56;9.07;;;5.47;;
73452;SDS011;61687;56.232;43.854;2024-02-26T14:20:23;11.32;;;5.72;;
73452;SDS011;61687;56.232;43.854;2024-02-26T14:22:50;11.88;;;4.93;;
73452;SDS011;61687;56.232;43.854;2024-02-26T14:25:19;11.90;;;5.22;;
73452;SDS011;61687;56.232;43.854;2024-02-26T14:27:46;8.82;;;5.20;;
73452;SDS011;61687;56.232;43.854;2024-02-26T14:30:12;10.20;;;5.45;;
73452;SDS011;61687;56.232;43.854;2024-02-26T14:32:38;10.40;;;5.28;;